Time;durP1;ratioP1;P1;durP2;ratioP2;P2;SDS_P1;SDS_P2;PMS_P1;PMS_P2;Temp;Humidity;BMP_temperature;BMP_pressure;BME280_temperature;BME280_humidity;BME280_pressure;Samples;Min_cycle;Max_cycle;Signal;HPM_P1;HPM_P2
2023/03/23 00:02:25;;;;;;;;;;;11.60;99.90;;;;;;5094159;28;20295;-54
2023/03/23 00:04:51;;;;;;;;;;;11.60;99.90;;;;;;5093496;28;19961;-57
2023/03/23 00:07:21;;;;;;;;;;;11.60;99.90;;;;;;5083786;28;19916;-56
2023/03/23 00:09:53;;;;;;;;;;;11.60;99.90;;;;;;5090073;28;19908;-56
2023/03/23 00:12:20;;;;;;;;;;;11.60;99.90;;;;;;5076126;28;19912;-56
2023/03/23 00:14:46;;;;;;;;;;;11.60;99.90;;;;;;5082568;28;19912;-54
2023/03/23 00:17:14;;;;;;;;;;;11.60;99.90;;;;;;5094046;28;20298;-57
2023/03/23 00:19:45;;;;;;;;;;;11.60;99.90;;;;;;5078658;28;19940;-56
2023/03/23 00:22:14;;;;;;;;;;;11.60;99.90;;;;;;5073781;28;19916;-56
2023/03/23 00:24:40;;;;;;;;;;;11.60;99.90;;;;;;5073771;28;20295;-56
2023/03/23 00:27:05;;;;;;;;;;;11.60;99.90;;;;;;5076239;28;20393;-56
2023/03/23 00:29:32;;;;;;;;;;;11.60;99.90;;;;;;5093364;28;19920;-56
2023/03/23 00:31:57;;;;;;;;;;;11.60;99.90;;;;;;5087327;28;19908;-56
2023/03/23 00:34:24;;;;;;;;;;;11.60;99.90;;;;;;5076711;28;19916;-56
2023/03/23 00:36:56;;;;;;;;;;;11.60;99.90;;;;;;5074223;28;19916;-56
2023/03/23 00:39:24;;;;;;;;;;;11.60;99.90;;;;;;5073297;28;19908;-56
2023/03/23 00:41:50;;;;;;;;;;;11.60;99.90;;;;;;5072386;28;19909;-56
2023/03/23 00:44:18;;;;;;;;;;;11.70;99.90;;;;;;5073463;28;20409;-56
2023/03/23 00:46:48;;;;;;;;;;;11.60;99.90;;;;;;5076810;28;19912;-55
2023/03/23 00:49:18;;;;;;;;;;;11.70;99.90;;;;;;5092236;28;20037;-56
2023/03/23 00:51:44;;;;;;;;;;;11.70;99.90;;;;;;5080803;28;20515;-55
2023/03/23 00:54:10;;;;;;;;;;;11.70;99.90;;;;;;5093329;28;19999;-56
2023/03/23 00:56:35;;;;;;;;;;;11.70;99.90;;;;;;5092647;28;19908;-57
2023/03/23 00:59:01;;;;;;;;;;;11.70;99.90;;;;;;5093598;28;20314;-56
2023/03/23 01:01:26;;;;;;;;;;;11.80;99.90;;;;;;5092855;28;19970;-56
2023/03/23 01:04:00;;;;;;;;;;;11.80;99.90;;;;;;5090753;28;19928;-57
2023/03/23 01:06:30;;;;;;;;;;;11.70;99.90;;;;;;5093521;28;19908;-57
2023/03/23 01:08:58;;;;;;;;;;;11.70;99.90;;;;;;5091595;28;20411;-56
2023/03/23 01:11:24;;;;;;;;;;;11.70;99.90;;;;;;5093193;28;20364;-57
2023/03/23 01:13:50;;;;;;;;;;;11.70;99.90;;;;;;5093006;28;19951;-55
2023/03/23 01:16:15;;;;;;;;;;;11.70;99.90;;;;;;5092442;28;19947;-56
2023/03/23 01:18:41;;;;;;;;;;;11.70;99.90;;;;;;5093110;28;19908;-56
2023/03/23 01:21:07;;;;;;;;;;;11.70;99.90;;;;;;5092928;28;19912;-57
2023/03/23 01:23:34;;;;;;;;;;;11.70;99.90;;;;;;5092273;28;19974;-56
2023/03/23 01:26:02;;;;;;;;;;;11.70;99.90;;;;;;5092872;28;20056;-56
2023/03/23 01:28:28;;;;;;;;;;;11.70;99.90;;;;;;5092876;28;19915;-58
2023/03/23 01:30:58;;;;;;;;;;;11.70;99.90;;;;;;5092106;28;19909;-56
2023/03/23 01:33:24;;;;;;;;;;;11.70;99.90;;;;;;5093166;28;20333;-55
2023/03/23 01:35:50;;;;;;;;;;;11.80;99.90;;;;;;5092792;28;19912;-57
2023/03/23 01:38:15;;;;;;;;;;;11.80;99.90;;;;;;5092088;28;19908;-56
2023/03/23 01:40:40;;;;;;;;;;;11.80;99.90;;;;;;5092843;28;19908;-56
2023/03/23 01:43:11;;;;;;;;;;;11.80;99.90;;;;;;5092685;28;19916;-55
2023/03/23 01:45:37;;;;;;;;;;;11.70;99.90;;;;;;5092051;28;19912;-56
2023/03/23 01:48:09;;;;;;;;;;;11.70;99.90;;;;;;5092697;28;20492;-56
2023/03/23 01:50:37;;;;;;;;;;;11.70;99.90;;;;;;5091467;28;20426;-56
2023/03/23 01:53:08;;;;;;;;;;;11.70;99.90;;;;;;5071582;28;19908;-56
2023/03/23 01:55:36;;;;;;;;;;;11.70;99.90;;;;;;5072326;28;20374;-56
2023/03/23 01:58:02;;;;;;;;;;;11.60;99.90;;;;;;5071675;28;19923;-57
2023/03/23 02:00:28;;;;;;;;;;;11.60;99.90;;;;;;5072635;28;19913;-58
2023/03/23 02:02:55;;;;;;;;;;;11.60;99.90;;;;;;5072147;28;19921;-57
2023/03/23 02:05:32;;;;;;;;;;;11.60;99.90;;;;;;5072751;28;19912;-57
2023/03/23 02:08:02;;;;;;;;;;;11.70;99.90;;;;;;5072232;28;19944;-57
2023/03/23 02:10:31;;;;;;;;;;;11.70;99.90;;;;;;5078197;28;19908;-57
2023/03/23 02:12:58;;;;;;;;;;;11.70;99.90;;;;;;5091496;28;20276;-57
2023/03/23 02:15:25;;;;;;;;;;;11.70;99.90;;;;;;5092440;28;19908;-57
2023/03/23 02:18:10;;;;;;;;;;;11.60;99.90;;;;;;5092257;28;20304;-58
2023/03/23 02:20:38;;;;;;;;;;;11.60;99.90;;;;;;5091863;28;19908;-57
2023/03/23 02:23:24;;;;;;;;;;;11.60;99.90;;;;;;5092260;28;19924;-53
2023/03/23 02:25:57;;;;;;;;;;;11.60;99.90;;;;;;5092459;28;20371;-55
2023/03/23 02:28:23;;;;;;;;;;;11.60;99.90;;;;;;5093367;28;20385;-56
2023/03/23 02:30:54;;;;;;;;;;;11.60;99.90;;;;;;5096221;28;19908;-56
2023/03/23 02:33:22;;;;;;;;;;;11.60;99.90;;;;;;5095378;28;19922;-58
2023/03/23 02:36:04;;;;;;;;;;;11.70;99.90;;;;;;5096166;28;20359;-57
2023/03/23 02:38:32;;;;;;;;;;;11.70;99.90;;;;;;5096181;28;19908;-56
2023/03/23 02:41:00;;;;;;;;;;;11.70;99.90;;;;;;5095303;28;19915;-57
2023/03/23 02:43:28;;;;;;;;;;;11.70;99.90;;;;;;5095953;28;19916;-56
2023/03/23 02:45:54;;;;;;;;;;;11.70;99.90;;;;;;5095720;28;19960;-57
2023/03/23 02:48:21;;;;;;;;;;;11.60;99.90;;;;;;5095081;28;19916;-57
2023/03/23 02:50:48;;;;;;;;;;;11.70;99.90;;;;;;5088418;28;19915;-57
2023/03/23 02:53:16;;;;;;;;;;;11.70;99.90;;;;;;5078397;28;19909;-57
2023/03/23 02:55:42;;;;;;;;;;;11.70;99.90;;;;;;5095174;28;20329;-58
2023/03/23 02:58:08;;;;;;;;;;;11.70;99.90;;;;;;5095740;28;19915;-57
2023/03/23 03:00:34;;;;;;;;;;;11.60;99.90;;;;;;5076884;28;19908;-58
2023/03/23 03:03:00;;;;;;;;;;;11.60;99.90;;;;;;5074218;28;20383;-57
2023/03/23 03:05:40;;;;;;;;;;;11.60;99.90;;;;;;5087176;28;20369;-56
2023/03/23 03:08:08;;;;;;;;;;;11.60;99.90;;;;;;5094865;28;20260;-54
2023/03/23 03:10:41;;;;;;;;;;;11.60;99.90;;;;;;5095038;28;19912;-57
2023/03/23 03:13:25;;;;;;;;;;;11.60;99.90;;;;;;5093079;28;19913;-56
2023/03/23 03:16:05;;;;;;;;;;;11.70;99.90;;;;;;5089033;28;19916;-56
2023/03/23 03:18:34;;;;;;;;;;;11.70;99.90;;;;;;5080681;28;19912;-57
2023/03/23 03:21:03;;;;;;;;;;;11.70;99.90;;;;;;5095302;28;19918;-57
2023/03/23 03:23:31;;;;;;;;;;;11.60;99.90;;;;;;5094508;28;19916;-56
2023/03/23 03:25:58;;;;;;;;;;;11.70;99.90;;;;;;5095230;28;19909;-57
2023/03/23 03:28:26;;;;;;;;;;;11.70;99.90;;;;;;5095144;28;19912;-57
2023/03/23 03:30:54;;;;;;;;;;;11.70;99.90;;;;;;5094377;28;19965;-58
2023/03/23 03:33:20;;;;;;;;;;;11.70;99.90;;;;;;5101917;28;20328;-57
2023/03/23 03:35:46;;;;;;;;;;;11.70;99.90;;;;;;5102527;28;19908;-57
2023/03/23 03:38:11;;;;;;;;;;;11.70;99.90;;;;;;5103046;28;19916;-57
2023/03/23 03:40:37;;;;;;;;;;;11.70;99.90;;;;;;5102689;28;19908;-55
2023/03/23 03:43:03;;;;;;;;;;;11.70;99.90;;;;;;5102134;28;19922;-56
2023/03/23 03:45:28;;;;;;;;;;;11.70;99.90;;;;;;5103627;28;19995;-57
2023/03/23 03:47:54;;;;;;;;;;;11.70;99.90;;;;;;5103466;28;19991;-58
2023/03/23 03:50:19;;;;;;;;;;;11.80;99.90;;;;;;5101974;28;19916;-57
2023/03/23 03:52:45;;;;;;;;;;;11.80;99.90;;;;;;5104438;28;20269;-56
2023/03/23 03:55:11;;;;;;;;;;;11.80;99.90;;;;;;5105911;28;19912;-57
2023/03/23 03:57:36;;;;;;;;;;;11.80;99.90;;;;;;5114052;28;19977;-57
2023/03/23 04:00:13;;;;;;;;;;;11.80;99.90;;;;;;5114878;28;20036;-57
2023/03/23 04:02:38;;;;;;;;;;;11.80;99.90;;;;;;5114720;28;19985;-56
2023/03/23 04:05:04;;;;;;;;;;;11.80;99.90;;;;;;5096425;28;20347;-56
2023/03/23 04:07:30;;;;;;;;;;;11.90;99.90;;;;;;5094251;28;20291;-58
2023/03/23 04:09:55;;;;;;;;;;;11.90;99.90;;;;;;5094209;28;19943;-56
2023/03/23 04:12:20;;;;;;;;;;;11.90;99.90;;;;;;5093441;28;20037;-57
2023/03/23 04:14:46;;;;;;;;;;;11.90;99.90;;;;;;5094222;28;19908;-58
2023/03/23 04:17:11;;;;;;;;;;;11.90;99.90;;;;;;5094132;28;19970;-57
2023/03/23 04:19:37;;;;;;;;;;;11.90;99.90;;;;;;5089590;28;19950;-56
2023/03/23 04:22:06;;;;;;;;;;;11.90;99.90;;;;;;5080204;28;19956;-57
2023/03/23 04:24:33;;;;;;;;;;;12.00;99.90;;;;;;5081807;28;19912;-57
2023/03/23 04:26:59;;;;;;;;;;;12.00;99.90;;;;;;5087647;28;19912;-56
2023/03/23 04:29:24;;;;;;;;;;;12.00;99.90;;;;;;5092686;28;19941;-57
2023/03/23 04:31:52;;;;;;;;;;;12.00;99.90;;;;;;5093246;28;20303;-57
2023/03/23 04:34:18;;;;;;;;;;;12.00;99.90;;;;;;5089963;28;20015;-56
2023/03/23 04:36:43;;;;;;;;;;;12.00;99.90;;;;;;5083845;28;20402;-57
2023/03/23 04:39:09;;;;;;;;;;;12.00;99.90;;;;;;5093793;28;19960;-56
2023/03/23 04:41:36;;;;;;;;;;;12.00;99.90;;;;;;5092985;28;19962;-58
2023/03/23 04:44:02;;;;;;;;;;;12.00;99.90;;;;;;5093706;28;19923;-57
2023/03/23 04:46:30;;;;;;;;;;;12.00;99.90;;;;;;5093745;28;19908;-56
2023/03/23 04:48:58;;;;;;;;;;;12.00;99.90;;;;;;5093042;28;20367;-56
2023/03/23 04:51:25;;;;;;;;;;;12.00;99.90;;;;;;5093101;28;20003;-56
2023/03/23 04:53:51;;;;;;;;;;;12.00;99.90;;;;;;5092546;28;19922;-57
2023/03/23 04:56:18;;;;;;;;;;;12.10;99.90;;;;;;5093500;28;19991;-57
2023/03/23 04:58:44;;;;;;;;;;;12.10;99.90;;;;;;5093383;28;20006;-56
2023/03/23 05:01:13;;;;;;;;;;;12.10;99.90;;;;;;5092230;28;19912;-57
2023/03/23 05:03:39;;;;;;;;;;;12.10;99.90;;;;;;5093556;28;20003;-57
2023/03/23 05:06:06;;;;;;;;;;;12.00;99.90;;;;;;5093167;28;20333;-56
2023/03/23 05:08:31;;;;;;;;;;;12.00;99.90;;;;;;5092501;28;19912;-57
2023/03/23 05:10:58;;;;;;;;;;;12.00;99.90;;;;;;5093234;28;20409;-53
2023/03/23 05:13:23;;;;;;;;;;;11.90;99.90;;;;;;5093246;28;19966;-47
2023/03/23 05:15:49;;;;;;;;;;;11.70;99.90;;;;;;5084534;28;20339;-45
2023/03/23 05:18:15;;;;;;;;;;;11.50;99.90;;;;;;5080017;28;19957;-47
2023/03/23 05:20:41;;;;;;;;;;;11.40;99.90;;;;;;5090675;28;19912;-55
2023/03/23 05:23:08;;;;;;;;;;;11.30;99.90;;;;;;5092091;28;19916;-54
2023/03/23 05:25:36;;;;;;;;;;;11.20;99.90;;;;;;5093129;28;19908;-53
2023/03/23 05:28:02;;;;;;;;;;;11.10;99.90;;;;;;5074552;28;19909;-55
2023/03/23 05:30:28;;;;;;;;;;;11.10;99.90;;;;;;5090457;28;19908;-55
2023/03/23 05:32:53;;;;;;;;;;;11.00;99.90;;;;;;5092899;28;20364;-50
2023/03/23 05:35:19;;;;;;;;;;;10.90;99.90;;;;;;5092860;28;19915;-55
2023/03/23 05:37:44;;;;;;;;;;;10.90;99.90;;;;;;5092342;28;19908;-54
2023/03/23 05:40:11;;;;;;;;;;;10.80;99.90;;;;;;5092748;28;19916;-55
2023/03/23 05:42:38;;;;;;;;;;;10.80;99.90;;;;;;5092714;28;20295;-55
2023/03/23 05:45:04;;;;;;;;;;;10.80;99.90;;;;;;5091975;28;19912;-56
2023/03/23 05:47:30;;;;;;;;;;;10.80;99.90;;;;;;5092681;28;20008;-54
2023/03/23 05:49:56;;;;;;;;;;;10.90;99.90;;;;;;5106074;28;20430;-53
2023/03/23 05:52:23;;;;;;;;;;;10.90;99.90;;;;;;5108383;28;19912;-55
2023/03/23 05:54:49;;;;;;;;;;;10.90;99.90;;;;;;5101744;28;19991;-56
2023/03/23 05:57:15;;;;;;;;;;;10.90;99.90;;;;;;5099468;28;20331;-52
2023/03/23 05:59:40;;;;;;;;;;;10.90;99.90;;;;;;5102368;28;19911;-55
2023/03/23 06:02:06;;;;;;;;;;;10.90;99.90;;;;;;5100810;28;20295;-54
2023/03/23 06:04:33;;;;;;;;;;;10.90;99.90;;;;;;5103266;28;19907;-54
2023/03/23 06:07:02;;;;;;;;;;;10.90;99.90;;;;;;5104274;28;19952;-55
2023/03/23 06:09:27;;;;;;;;;;;10.80;99.90;;;;;;5105308;28;19962;-54
2023/03/23 06:11:53;;;;;;;;;;;10.90;99.90;;;;;;5099562;28;19951;-56
2023/03/23 06:14:18;;;;;;;;;;;10.80;99.90;;;;;;5099742;28;20379;-54
2023/03/23 06:16:44;;;;;;;;;;;10.80;99.90;;;;;;5102877;28;19943;-52
2023/03/23 06:19:11;;;;;;;;;;;10.70;99.90;;;;;;5107223;28;20018;-51
2023/03/23 06:21:36;;;;;;;;;;;10.70;99.90;;;;;;5110614;28;19911;-53
2023/03/23 06:24:03;;;;;;;;;;;10.80;99.90;;;;;;5101935;28;19924;-53
2023/03/23 06:26:32;;;;;;;;;;;10.70;99.90;;;;;;5102648;28;19923;-55
2023/03/23 06:28:57;;;;;;;;;;;10.80;99.90;;;;;;5100661;28;19918;-54
2023/03/23 06:31:23;;;;;;;;;;;10.80;99.90;;;;;;5094121;28;20015;-51
2023/03/23 06:33:50;;;;;;;;;;;10.80;99.90;;;;;;5095415;28;19979;-55
2023/03/23 06:36:16;;;;;;;;;;;10.80;99.90;;;;;;5101405;28;19935;-50
2023/03/23 06:38:42;;;;;;;;;;;10.80;99.90;;;;;;5102991;28;19943;-51
2023/03/23 06:41:08;;;;;;;;;;;10.90;99.90;;;;;;5103917;28;19942;-53
2023/03/23 06:43:35;;;;;;;;;;;10.90;99.90;;;;;;5103423;28;20335;-51
2023/03/23 06:46:01;;;;;;;;;;;10.90;99.90;;;;;;5105285;28;19912;-52
2023/03/23 06:48:27;;;;;;;;;;;10.90;99.90;;;;;;5103867;28;19909;-50
2023/03/23 06:50:52;;;;;;;;;;;10.90;99.90;;;;;;5103722;28;20255;-50
2023/03/23 06:53:20;;;;;;;;;;;10.90;99.90;;;;;;5104739;28;19912;-50
2023/03/23 06:55:45;;;;;;;;;;;10.90;99.90;;;;;;5104406;28;19908;-51
2023/03/23 06:58:11;;;;;;;;;;;10.90;99.90;;;;;;5103767;28;19986;-54
2023/03/23 07:00:37;;;;;;;;;;;11.00;99.90;;;;;;5104622;28;20002;-49
2023/03/23 07:03:03;;;;;;;;;;;11.00;99.90;;;;;;5084100;28;19927;-53
2023/03/23 07:05:30;;;;;;;;;;;11.00;99.90;;;;;;5078681;28;20318;-49
2023/03/23 07:07:55;;;;;;;;;;;11.10;99.90;;;;;;5078441;28;19938;-53
2023/03/23 07:10:20;;;;;;;;;;;11.10;99.90;;;;;;5067317;28;19995;-54
2023/03/23 07:12:46;;;;;;;;;;;11.10;99.90;;;;;;5075341;28;19909;-52
2023/03/23 07:15:12;;;;;;;;;;;11.10;99.90;;;;;;5059655;28;19909;-51
2023/03/23 07:17:38;;;;;;;;;;;11.20;99.90;;;;;;5074698;28;19912;-54
2023/03/23 07:20:04;;;;;;;;;;;11.20;99.90;;;;;;5075388;28;20399;-54
2023/03/23 07:22:30;;;;;;;;;;;11.20;99.90;;;;;;5094214;28;19923;-53
2023/03/23 07:24:56;;;;;;;;;;;11.20;99.90;;;;;;5094925;28;19913;-52
2023/03/23 07:27:21;;;;;;;;;;;11.30;99.90;;;;;;5089670;28;19908;-55
2023/03/23 07:29:47;;;;;;;;;;;11.30;99.90;;;;;;5065489;28;19908;-53
2023/03/23 07:32:12;;;;;;;;;;;11.30;99.90;;;;;;5071518;28;20275;-48
2023/03/23 07:34:38;;;;;;;;;;;11.30;99.90;;;;;;5054965;28;19909;-54
2023/03/23 07:37:04;;;;;;;;;;;11.40;99.90;;;;;;5053970;28;20322;-55
2023/03/23 07:39:29;;;;;;;;;;;11.40;99.90;;;;;;5070220;28;20310;-55
2023/03/23 07:41:55;;;;;;;;;;;11.50;99.90;;;;;;5072830;28;19909;-53
2023/03/23 07:44:21;;;;;;;;;;;11.60;99.90;;;;;;5053708;28;19960;-54
2023/03/23 07:46:47;;;;;;;;;;;11.70;99.90;;;;;;5054323;28;19995;-56
2023/03/23 07:49:12;;;;;;;;;;;11.80;99.90;;;;;;5054632;28;20042;-56
2023/03/23 07:51:38;;;;;;;;;;;11.90;99.90;;;;;;5053467;28;19913;-49
2023/03/23 07:54:04;;;;;;;;;;;11.90;99.90;;;;;;5072421;28;19916;-56
2023/03/23 07:56:30;;;;;;;;;;;11.90;99.90;;;;;;5058281;28;19909;-54
2023/03/23 07:58:56;;;;;;;;;;;11.90;99.90;;;;;;5062481;28;19919;-56
2023/03/23 08:01:23;;;;;;;;;;;12.00;99.90;;;;;;5071757;28;19924;-55
2023/03/23 08:03:48;;;;;;;;;;;12.00;99.90;;;;;;5093282;28;19974;-56
2023/03/23 08:06:15;;;;;;;;;;;12.00;99.90;;;;;;5091709;28;19912;-56
2023/03/23 08:08:40;;;;;;;;;;;12.00;99.90;;;;;;5074187;28;19942;-56
2023/03/23 08:11:06;;;;;;;;;;;12.10;99.90;;;;;;5073409;28;19913;-56
2023/03/23 08:13:33;;;;;;;;;;;12.10;99.90;;;;;;5074046;28;19909;-56
2023/03/23 08:15:58;;;;;;;;;;;12.10;99.90;;;;;;5074519;28;19958;-56
2023/03/23 08:18:25;;;;;;;;;;;12.10;99.90;;;;;;5075647;28;20344;-56
2023/03/23 08:20:50;;;;;;;;;;;12.20;99.90;;;;;;5087229;28;19915;-54
2023/03/23 08:23:16;;;;;;;;;;;12.20;99.90;;;;;;5093533;28;20024;-55
2023/03/23 08:25:43;;;;;;;;;;;12.20;99.90;;;;;;5080032;28;19912;-56
2023/03/23 08:28:09;;;;;;;;;;;12.20;99.90;;;;;;5083914;28;19938;-56
2023/03/23 08:30:36;;;;;;;;;;;12.20;99.90;;;;;;5077971;28;19912;-55
2023/03/23 08:33:02;;;;;;;;;;;12.30;99.90;;;;;;5078104;28;20310;-56
2023/03/23 08:35:28;;;;;;;;;;;12.30;99.90;;;;;;5073716;28;19909;-56
2023/03/23 08:37:54;;;;;;;;;;;12.30;99.90;;;;;;5073508;28;19909;-56
2023/03/23 08:40:21;;;;;;;;;;;12.30;99.90;;;;;;5072837;28;19931;-56
2023/03/23 08:42:47;;;;;;;;;;;12.40;99.90;;;;;;5073356;28;19920;-57
2023/03/23 08:45:15;;;;;;;;;;;12.30;99.90;;;;;;5073610;28;19916;-56
2023/03/23 08:47:41;;;;;;;;;;;12.40;99.90;;;;;;5072513;28;20001;-55
2023/03/23 08:50:08;;;;;;;;;;;12.40;99.90;;;;;;5073236;28;20332;-57
2023/03/23 08:52:34;;;;;;;;;;;12.30;99.90;;;;;;5073131;28;19909;-57
2023/03/23 08:54:59;;;;;;;;;;;12.30;99.90;;;;;;5072106;28;20287;-56
2023/03/23 08:57:26;;;;;;;;;;;12.50;99.90;;;;;;5085901;28;19912;-56
2023/03/23 08:59:54;;;;;;;;;;;12.60;99.90;;;;;;5081098;28;19916;-56
2023/03/23 09:02:19;;;;;;;;;;;12.80;99.90;;;;;;5072873;28;20376;-57
2023/03/23 09:04:45;;;;;;;;;;;12.90;99.90;;;;;;5088823;28;19923;-57
2023/03/23 09:07:12;;;;;;;;;;;13.00;99.90;;;;;;5092551;28;19916;-57
2023/03/23 09:09:39;;;;;;;;;;;12.90;99.90;;;;;;5093296;28;20355;-56
2023/03/23 09:12:05;;;;;;;;;;;12.90;99.90;;;;;;5093169;28;19946;-56
2023/03/23 09:14:31;;;;;;;;;;;12.90;99.90;;;;;;5084314;28;20343;-57
2023/03/23 09:16:57;;;;;;;;;;;13.00;99.90;;;;;;5072779;28;19927;-55
2023/03/23 09:19:23;;;;;;;;;;;13.10;99.90;;;;;;5072966;28;19909;-54
2023/03/23 09:21:48;;;;;;;;;;;13.20;99.90;;;;;;5072478;28;19909;-56
2023/03/23 09:24:14;;;;;;;;;;;13.20;99.90;;;;;;5078503;28;19959;-57
2023/03/23 09:26:40;;;;;;;;;;;13.00;99.90;;;;;;5093499;28;19931;-55
2023/03/23 09:29:06;;;;;;;;;;;12.90;99.90;;;;;;5091878;28;19915;-54
2023/03/23 09:31:31;;;;;;;;;;;12.70;99.90;;;;;;5080526;28;19908;-57
2023/03/23 09:33:58;;;;;;;;;;;12.70;99.90;;;;;;5084891;28;19995;-57
2023/03/23 09:36:25;;;;;;;;;;;12.70;99.90;;;;;;5072307;28;19909;-58
2023/03/23 09:38:52;;;;;;;;;;;12.70;99.90;;;;;;5072638;28;19913;-57
2023/03/23 09:41:36;;;;;;;;;;;12.70;99.90;;;;;;5077893;28;19916;-57
2023/03/23 09:44:08;;;;;;;;;;;12.70;99.90;;;;;;5084736;28;20272;-57
2023/03/23 09:46:37;;;;;;;;;;;12.70;99.90;;;;;;5080215;28;19915;-57
2023/03/23 09:49:08;;;;;;;;;;;12.90;99.90;;;;;;5081620;28;19919;-57
2023/03/23 09:51:46;;;;;;;;;;;13.00;99.90;;;;;;5072431;28;19913;-57
2023/03/23 09:54:17;;;;;;;;;;;12.90;99.90;;;;;;5074670;28;19999;-58
2023/03/23 09:56:43;;;;;;;;;;;12.90;99.90;;;;;;5074349;28;19923;-58
2023/03/23 09:59:30;;;;;;;;;;;12.90;99.90;;;;;;5074575;28;20276;-57
2023/03/23 10:02:04;;;;;;;;;;;12.70;99.90;;;;;;5071989;28;19975;-55
2023/03/23 10:04:29;;;;;;;;;;;12.60;99.90;;;;;;5072442;28;19952;-55
2023/03/23 10:07:09;;;;;;;;;;;12.80;99.90;;;;;;5072619;28;20013;-56
2023/03/23 10:09:35;;;;;;;;;;;12.70;99.90;;;;;;5073139;28;19908;-57
2023/03/23 10:12:09;;;;;;;;;;;12.60;99.90;;;;;;5072263;28;19913;-58
2023/03/23 10:14:47;;;;;;;;;;;12.70;99.90;;;;;;5073969;28;20011;-57
2023/03/23 10:17:15;;;;;;;;;;;12.90;99.90;;;;;;5072680;28;19991;-58
2023/03/23 10:19:59;;;;;;;;;;;13.20;99.90;;;;;;5073178;28;20323;-57
2023/03/23 10:22:31;;;;;;;;;;;13.10;99.90;;;;;;5079714;28;19912;-58
2023/03/23 10:25:02;;;;;;;;;;;12.90;99.90;;;;;;5071071;28;20373;-58
2023/03/23 10:27:27;;;;;;;;;;;12.80;99.90;;;;;;5071866;28;20260;-58
2023/03/23 10:30:03;;;;;;;;;;;12.60;99.90;;;;;;5074134;28;20398;-58
2023/03/23 10:32:38;;;;;;;;;;;12.60;99.90;;;;;;5084074;28;20033;-59
2023/03/23 10:35:06;;;;;;;;;;;12.40;99.90;;;;;;5085424;28;20408;-58
2023/03/23 10:37:36;;;;;;;;;;;12.40;99.90;;;;;;5083755;28;19916;-58
2023/03/23 10:40:03;;;;;;;;;;;12.30;99.90;;;;;;5081091;28;20014;-57
2023/03/23 10:42:31;;;;;;;;;;;12.20;99.90;;;;;;5071723;28;19912;-57
2023/03/23 10:44:57;;;;;;;;;;;12.30;99.90;;;;;;5072215;28;19916;-58
2023/03/23 10:47:24;;;;;;;;;;;12.30;99.90;;;;;;5071873;28;20011;-58
2023/03/23 10:49:58;;;;;;;;;;;12.30;99.90;;;;;;5074016;28;20027;-59
2023/03/23 10:52:34;;;;;;;;;;;12.30;99.90;;;;;;5075758;28;19909;-59
2023/03/23 10:55:11;;;;;;;;;;;12.40;99.90;;;;;;5083214;28;19953;-58
2023/03/23 10:57:39;;;;;;;;;;;12.60;99.90;;;;;;5076471;28;19912;-58
2023/03/23 11:00:08;;;;;;;;;;;12.80;99.90;;;;;;5073515;28;19942;-58
2023/03/23 11:02:45;;;;;;;;;;;13.00;99.90;;;;;;5074931;28;19920;-58
2023/03/23 11:05:22;;;;;;;;;;;13.30;99.90;;;;;;5075240;28;19958;-59
2023/03/23 11:07:49;;;;;;;;;;;13.60;99.90;;;;;;5074481;28;19909;-57
2023/03/23 11:10:18;;;;;;;;;;;14.00;99.90;;;;;;5075795;28;19908;-58
2023/03/23 11:12:45;;;;;;;;;;;14.30;99.90;;;;;;5075643;28;19920;-58
2023/03/23 11:15:22;;;;;;;;;;;14.40;99.90;;;;;;5075959;28;20377;-58
2023/03/23 11:17:55;;;;;;;;;;;14.50;99.90;;;;;;5082031;28;20279;-56
2023/03/23 11:20:21;;;;;;;;;;;14.40;96.10;;;;;;5082919;28;20019;-58
2023/03/23 11:22:46;;;;;;;;;;;14.70;99.90;;;;;;5074247;28;20008;-57
2023/03/23 11:25:13;;;;;;;;;;;14.80;97.00;;;;;;5075264;28;19908;-58
2023/03/23 11:27:38;;;;;;;;;;;14.80;96.10;;;;;;5082784;28;19924;-57
2023/03/23 11:30:18;;;;;;;;;;;14.80;96.70;;;;;;5079383;28;19923;-58
2023/03/23 11:32:44;;;;;;;;;;;14.90;99.50;;;;;;5085901;28;19962;-59
2023/03/23 11:35:21;;;;;;;;;;;15.00;97.40;;;;;;5074692;28;20263;-59
2023/03/23 11:37:54;;;;;;;;;;;14.90;98.60;;;;;;5073954;28;19928;-58
2023/03/23 11:40:21;;;;;;;;;;;14.90;94.80;;;;;;5074147;28;19912;-59
2023/03/23 11:42:47;;;;;;;;;;;14.70;92.70;;;;;;5073606;28;20291;-59
2023/03/23 11:45:14;;;;;;;;;;;14.50;93.80;;;;;;5073987;28;20406;-59
2023/03/23 11:47:42;;;;;;;;;;;14.40;97.70;;;;;;5074236;28;19944;-59
2023/03/23 11:50:26;;;;;;;;;;;14.20;98.20;;;;;;5073480;28;20308;-58
2023/03/23 11:53:10;;;;;;;;;;;14.10;99.10;;;;;;5082799;28;19912;-58
2023/03/23 11:55:54;;;;;;;;;;;14.40;97.20;;;;;;5078847;28;20003;-58
2023/03/23 11:58:21;;;;;;;;;;;14.50;94.60;;;;;;5074646;28;19909;-59
2023/03/23 12:00:51;;;;;;;;;;;14.50;92.10;;;;;;5073038;28;19946;-59
2023/03/23 12:03:35;;;;;;;;;;;14.60;92.80;;;;;;5074226;28;20283;-58
2023/03/23 12:06:06;;;;;;;;;;;14.70;92.90;;;;;;5074319;28;19999;-56
2023/03/23 12:08:41;;;;;;;;;;;14.70;97.00;;;;;;5074320;28;19947;-59
2023/03/23 12:11:25;;;;;;;;;;;14.60;91.70;;;;;;5073207;28;19916;-60
2023/03/23 12:14:06;;;;;;;;;;;14.70;94.00;;;;;;5073995;28;19920;-59
2023/03/23 12:16:47;;;;;;;;;;;14.80;88.10;;;;;;5074092;28;19908;-60
2023/03/23 12:19:16;;;;;;;;;;;14.70;93.80;;;;;;5073980;28;19926;-59
2023/03/23 12:22:09;;;;;;;;;;;14.50;86.60;;;;;;5073914;28;19912;-59
2023/03/23 12:24:50;;;;;;;;;;;14.30;89.50;;;;;;5073166;28;19917;-59
2023/03/23 12:27:24;;;;;;;;;;;14.20;91.30;;;;;;5078382;28;19916;-59
2023/03/23 12:29:59;;;;;;;;;;;14.20;90.30;;;;;;5073493;28;20338;-60
2023/03/23 12:32:44;;;;;;;;;;;14.10;88.90;;;;;;5075181;28;20007;-58
2023/03/23 12:35:25;;;;;;;;;;;14.00;91.60;;;;;;5083711;28;20010;-58
2023/03/23 12:38:05;;;;;;;;;;;13.90;94.20;;;;;;5073825;28;19916;-57
2023/03/23 12:40:36;;;;;;;;;;;13.80;94.50;;;;;;5088894;28;19912;-60
2023/03/23 12:43:21;;;;;;;;;;;13.80;95.00;;;;;;5074138;28;20351;-61
2023/03/23 12:45:56;;;;;;;;;;;13.80;94.70;;;;;;5077006;28;20294;-59
2023/03/23 12:48:27;;;;;;;;;;;13.60;99.90;;;;;;5097303;28;19917;-58
2023/03/23 12:51:11;;;;;;;;;;;13.40;99.90;;;;;;5074458;28;20456;-59
2023/03/23 12:53:43;;;;;;;;;;;13.20;99.90;;;;;;5080063;28;19912;-59
2023/03/23 12:56:17;;;;;;;;;;;13.10;99.90;;;;;;5082328;28;19944;-60
2023/03/23 12:58:46;;;;;;;;;;;13.10;99.90;;;;;;5073250;28;19931;-59
2023/03/23 13:01:17;;;;;;;;;;;13.10;99.90;;;;;;5073051;28;19954;-59
2023/03/23 13:04:06;;;;;;;;;;;13.10;99.90;;;;;;5068185;28;20282;-59
2023/03/23 13:06:35;;;;;;;;;;;13.00;99.90;;;;;;5083198;28;20019;-59
2023/03/23 13:09:04;;;;;;;;;;;13.10;99.90;;;;;;5085938;28;19918;-59
2023/03/23 13:11:34;;;;;;;;;;;13.20;99.90;;;;;;5092410;28;19908;-59
2023/03/23 13:14:09;;;;;;;;;;;13.20;99.90;;;;;;5072977;28;19915;-59
2023/03/23 13:16:35;;;;;;;;;;;13.10;99.90;;;;;;5080190;28;19912;-60
2023/03/23 13:19:07;;;;;;;;;;;13.20;99.90;;;;;;5101830;28;19919;-59
2023/03/23 13:22:02;;;;;;;;;;;13.70;99.90;;;;;;5091110;28;20359;-58
2023/03/23 13:24:29;;;;;;;;;;;14.10;99.90;;;;;;5068554;28;20265;-58
2023/03/23 13:26:57;;;;;;;;;;;14.40;99.90;;;;;;5085601;28;19939;-59
2023/03/23 13:29:24;;;;;;;;;;;14.40;97.60;;;;;;5072027;28;19909;-57
2023/03/23 13:31:50;;;;;;;;;;;14.40;99.90;;;;;;5075996;28;19936;-57
2023/03/23 13:34:19;;;;;;;;;;;14.60;99.30;;;;;;5084737;28;20274;-58
2023/03/23 13:36:54;;;;;;;;;;;14.90;99.70;;;;;;5081955;28;20350;-59
2023/03/23 13:39:21;;;;;;;;;;;15.10;94.30;;;;;;5093069;28;19915;-59
2023/03/23 13:41:47;;;;;;;;;;;15.30;94.90;;;;;;5092171;28;19915;-60
2023/03/23 13:44:16;;;;;;;;;;;15.10;91.60;;;;;;5089305;28;19916;-60
2023/03/23 13:46:42;;;;;;;;;;;15.00;94.50;;;;;;5078205;28;20354;-60
2023/03/23 13:49:17;;;;;;;;;;;15.00;92.00;;;;;;5081544;28;19995;-59
2023/03/23 13:51:43;;;;;;;;;;;15.40;95.10;;;;;;5073999;28;19943;-61
2023/03/23 13:54:12;;;;;;;;;;;15.50;94.90;;;;;;5079604;28;20244;-60
2023/03/23 13:56:41;;;;;;;;;;;15.50;91.00;;;;;;5078538;28;20371;-58
2023/03/23 13:59:12;;;;;;;;;;;15.30;83.60;;;;;;5089259;28;19908;-59
2023/03/23 14:01:41;;;;;;;;;;;15.00;84.20;;;;;;5092427;28;19920;-59
2023/03/23 14:04:10;;;;;;;;;;;14.90;90.00;;;;;;5091673;28;20264;-60
2023/03/23 14:06:35;;;;;;;;;;;14.80;91.40;;;;;;5092867;28;19958;-60
2023/03/23 14:09:06;;;;;;;;;;;14.60;90.30;;;;;;5092750;28;19912;-59
2023/03/23 14:11:32;;;;;;;;;;;14.60;91.90;;;;;;5084287;28;20007;-59
2023/03/23 14:14:13;;;;;;;;;;;14.60;99.90;;;;;;5072497;28;19955;-60
2023/03/23 14:16:40;;;;;;;;;;;14.60;98.80;;;;;;5071601;28;20279;-59
2023/03/23 14:19:20;;;;;;;;;;;14.60;98.40;;;;;;5072222;28;19991;-60
2023/03/23 14:21:50;;;;;;;;;;;14.40;97.20;;;;;;5074178;28;19909;-60
2023/03/23 14:24:17;;;;;;;;;;;14.30;96.70;;;;;;5092322;28;19921;-60
2023/03/23 14:26:44;;;;;;;;;;;14.10;95.90;;;;;;5096640;28;19946;-60